sensor_id;sensor_type;location;lat;lon;timestamp;temperature;humidity
28863;DHT22;15994;51.796;13.006;2023-02-28T00:00:50;1.50;99.90
28863;DHT22;15994;51.796;13.006;2023-02-28T00:03:16;1.40;99.90
28863;DHT22;15994;51.796;13.006;2023-02-28T00:05:43;1.40;99.90
28863;DHT22;15994;51.796;13.006;2023-02-28T00:08:09;1.40;99.90
28863;DHT22;15994;51.796;13.006;2023-02-28T00:10:36;1.40;99.90
28863;DHT22;15994;51.796;13.006;2023-02-28T00:13:05;1.40;99.90
28863;DHT22;15994;51.796;13.006;2023-02-28T00:15:33;1.40;99.90
28863;DHT22;15994;51.796;13.006;2023-02-28T00:17:59;1.40;99.90
28863;DHT22;15994;51.796;13.006;2023-02-28T00:20:26;1.40;99.90
28863;DHT22;15994;51.796;13.006;2023-02-28T00:22:53;1.40;99.90
28863;DHT22;15994;51.796;13.006;2023-02-28T00:25:25;1.30;99.90
28863;DHT22;15994;51.796;13.006;2023-02-28T00:27:52;1.20;99.90
28863;DHT22;15994;51.796;13.006;2023-02-28T00:30:22;1.20;99.90
28863;DHT22;15994;51.796;13.006;2023-02-28T00:32:49;1.30;99.90
28863;DHT22;15994;51.796;13.006;2023-02-28T00:35:16;1.30;99.90
28863;DHT22;15994;51.796;13.006;2023-02-28T00:37:43;1.30;99.90
28863;DHT22;15994;51.796;13.006;2023-02-28T00:40:10;1.20;99.90
28863;DHT22;15994;51.796;13.006;2023-02-28T00:42:38;1.20;99.90
28863;DHT22;15994;51.796;13.006;2023-02-28T00:45:05;1.20;99.90
28863;DHT22;15994;51.796;13.006;2023-02-28T00:47:32;1.30;99.90
28863;DHT22;15994;51.796;13.006;2023-02-28T00:49:59;1.20;99.90
28863;DHT22;15994;51.796;13.006;2023-02-28T00:52:26;1.20;99.90
28863;DHT22;15994;51.796;13.006;2023-02-28T00:54:52;1.20;99.90
28863;DHT22;15994;51.796;13.006;2023-02-28T00:57:19;1.20;99.90
28863;DHT22;15994;51.796;13.006;2023-02-28T00:59:45;1.20;99.90
28863;DHT22;15994;51.796;13.006;2023-02-28T01:02:12;1.20;99.90
28863;DHT22;15994;51.796;13.006;2023-02-28T01:04:38;1.30;99.90
28863;DHT22;15994;51.796;13.006;2023-02-28T01:07:05;1.20;99.90
28863;DHT22;15994;51.796;13.006;2023-02-28T01:09:31;1.30;99.90
28863;DHT22;15994;51.796;13.006;2023-02-28T01:11:58;1.30;99.90
28863;DHT22;15994;51.796;13.006;2023-02-28T01:14:24;1.20;99.90
28863;DHT22;15994;51.796;13.006;2023-02-28T01:16:51;1.20;99.90
28863;DHT22;15994;51.796;13.006;2023-02-28T01:19:17;1.20;99.90
28863;DHT22;15994;51.796;13.006;2023-02-28T01:21:44;1.20;99.90
28863;DHT22;15994;51.796;13.006;2023-02-28T01:24:10;1.10;99.90
28863;DHT22;15994;51.796;13.006;2023-02-28T01:26:37;1.10;99.90
28863;DHT22;15994;51.796;13.006;2023-02-28T01:29:03;1.10;99.90
28863;DHT22;15994;51.796;13.006;2023-02-28T01:31:30;1.10;99.90
28863;DHT22;15994;51.796;13.006;2023-02-28T01:33:56;1.20;99.90
28863;DHT22;15994;51.796;13.006;2023-02-28T01:36:24;1.10;99.90
28863;DHT22;15994;51.796;13.006;2023-02-28T01:38:51;1.10;99.90
28863;DHT22;15994;51.796;13.006;2023-02-28T01:41:27;1.00;99.90
28863;DHT22;15994;51.796;13.006;2023-02-28T01:43:55;1.00;99.90
28863;DHT22;15994;51.796;13.006;2023-02-28T01:46:22;1.00;99.90
28863;DHT22;15994;51.796;13.006;2023-02-28T01:49:00;1.00;99.90
28863;DHT22;15994;51.796;13.006;2023-02-28T01:51:37;0.90;99.90
28863;DHT22;15994;51.796;13.006;2023-02-28T01:54:09;0.90;99.90
28863;DHT22;15994;51.796;13.006;2023-02-28T01:56:41;0.80;99.90
28863;DHT22;15994;51.796;13.006;2023-02-28T01:59:11;0.80;99.90
28863;DHT22;15994;51.796;13.006;2023-02-28T02:01:38;0.70;99.90
28863;DHT22;15994;51.796;13.006;2023-02-28T02:04:05;0.70;99.90
28863;DHT22;15994;51.796;13.006;2023-02-28T02:06:38;0.70;99.90
28863;DHT22;15994;51.796;13.006;2023-02-28T02:09:06;0.70;99.90
28863;DHT22;15994;51.796;13.006;2023-02-28T02:11:34;0.60;99.90
28863;DHT22;15994;51.796;13.006;2023-02-28T02:22:32;0.50;99.90
28863;DHT22;15994;51.796;13.006;2023-02-28T02:36:45;0.10;99.90
28863;DHT22;15994;51.796;13.006;2023-02-28T02:39:31;0.10;99.90
28863;DHT22;15994;51.796;13.006;2023-02-28T02:42:08;0.00;99.90
28863;DHT22;15994;51.796;13.006;2023-02-28T02:44:46;-0.10;99.90
28863;DHT22;15994;51.796;13.006;2023-02-28T02:47:17;-0.20;99.90
28863;DHT22;15994;51.796;13.006;2023-02-28T02:49:50;-0.30;99.90
28863;DHT22;15994;51.796;13.006;2023-02-28T02:52:22;-0.40;99.90
28863;DHT22;15994;51.796;13.006;2023-02-28T02:54:51;-0.40;99.90
28863;DHT22;15994;51.796;13.006;2023-02-28T02:57:55;-0.40;99.90
28863;DHT22;15994;51.796;13.006;2023-02-28T03:00:33;-0.40;99.90
28863;DHT22;15994;51.796;13.006;2023-02-28T03:03:01;-0.30;99.90
28863;DHT22;15994;51.796;13.006;2023-02-28T03:05:36;-0.30;99.90
28863;DHT22;15994;51.796;13.006;2023-02-28T03:08:05;-0.20;99.90
28863;DHT22;15994;51.796;13.006;2023-02-28T03:10:46;-0.30;99.90
28863;DHT22;15994;51.796;13.006;2023-02-28T03:24:39;-0.20;99.90
28863;DHT22;15994;51.796;13.006;2023-02-28T03:27:12;-0.20;99.90
28863;DHT22;15994;51.796;13.006;2023-02-28T03:29:47;-0.20;99.90
28863;DHT22;15994;51.796;13.006;2023-02-28T03:32:18;-0.20;99.90
28863;DHT22;15994;51.796;13.006;2023-02-28T03:35:06;-0.20;99.90
28863;DHT22;15994;51.796;13.006;2023-02-28T03:37:37;-0.20;99.90
28863;DHT22;15994;51.796;13.006;2023-02-28T03:40:08;-0.30;99.90
28863;DHT22;15994;51.796;13.006;2023-02-28T03:42:39;-0.30;99.90
28863;DHT22;15994;51.796;13.006;2023-02-28T03:45:13;-0.30;99.90
28863;DHT22;15994;51.796;13.006;2023-02-28T03:47:55;-0.40;99.90
28863;DHT22;15994;51.796;13.006;2023-02-28T03:53:14;-0.30;99.90
28863;DHT22;15994;51.796;13.006;2023-02-28T03:55:51;-0.50;99.90
28863;DHT22;15994;51.796;13.006;2023-02-28T03:58:21;-0.50;99.90
28863;DHT22;15994;51.796;13.006;2023-02-28T04:00:57;-0.50;99.90
28863;DHT22;15994;51.796;13.006;2023-02-28T04:03:25;-0.60;99.90
28863;DHT22;15994;51.796;13.006;2023-02-28T04:05:54;-0.60;99.90
28863;DHT22;15994;51.796;13.006;2023-02-28T04:08:21;-0.60;99.90
28863;DHT22;15994;51.796;13.006;2023-02-28T04:10:54;-0.60;99.90
28863;DHT22;15994;51.796;13.006;2023-02-28T04:13:22;-0.70;99.90
28863;DHT22;15994;51.796;13.006;2023-02-28T04:15:49;-0.60;99.90
28863;DHT22;15994;51.796;13.006;2023-02-28T04:18:15;-0.70;99.90
28863;DHT22;15994;51.796;13.006;2023-02-28T04:20:41;-0.70;99.90
28863;DHT22;15994;51.796;13.006;2023-02-28T04:23:08;-0.70;99.90
28863;DHT22;15994;51.796;13.006;2023-02-28T04:25:34;-0.70;99.90
28863;DHT22;15994;51.796;13.006;2023-02-28T04:28:01;-0.80;99.90
28863;DHT22;15994;51.796;13.006;2023-02-28T04:30:27;-0.80;99.90
28863;DHT22;15994;51.796;13.006;2023-02-28T04:32:54;-0.80;99.90
28863;DHT22;15994;51.796;13.006;2023-02-28T04:35:21;-0.80;99.90
28863;DHT22;15994;51.796;13.006;2023-02-28T04:37:47;-0.80;99.90
28863;DHT22;15994;51.796;13.006;2023-02-28T04:40:14;-0.80;99.90
28863;DHT22;15994;51.796;13.006;2023-02-28T04:42:40;-0.80;99.90
28863;DHT22;15994;51.796;13.006;2023-02-28T04:45:08;-0.80;99.90
28863;DHT22;15994;51.796;13.006;2023-02-28T04:47:35;-0.80;99.90
28863;DHT22;15994;51.796;13.006;2023-02-28T04:50:02;-0.80;99.90
28863;DHT22;15994;51.796;13.006;2023-02-28T04:52:29;-0.90;99.90
28863;DHT22;15994;51.796;13.006;2023-02-28T04:54:56;-0.90;99.90
28863;DHT22;15994;51.796;13.006;2023-02-28T04:57:22;-0.90;99.90
28863;DHT22;15994;51.796;13.006;2023-02-28T04:59:49;-0.90;99.90
28863;DHT22;15994;51.796;13.006;2023-02-28T05:02:15;-0.90;99.90
28863;DHT22;15994;51.796;13.006;2023-02-28T05:04:42;-0.90;99.90
28863;DHT22;15994;51.796;13.006;2023-02-28T05:07:08;-1.00;99.90
28863;DHT22;15994;51.796;13.006;2023-02-28T05:09:35;-1.00;99.90
28863;DHT22;15994;51.796;13.006;2023-02-28T05:12:01;-1.00;99.90
28863;DHT22;15994;51.796;13.006;2023-02-28T05:14:28;-1.00;99.90
28863;DHT22;15994;51.796;13.006;2023-02-28T05:16:55;-1.00;99.90
28863;DHT22;15994;51.796;13.006;2023-02-28T05:19:21;-1.10;99.90
28863;DHT22;15994;51.796;13.006;2023-02-28T05:21:50;-1.10;99.90
28863;DHT22;15994;51.796;13.006;2023-02-28T05:24:18;-1.10;99.90
28863;DHT22;15994;51.796;13.006;2023-02-28T05:26:48;-1.10;99.90
28863;DHT22;15994;51.796;13.006;2023-02-28T05:29:15;-1.10;99.90
28863;DHT22;15994;51.796;13.006;2023-02-28T05:31:42;-1.10;99.90
28863;DHT22;15994;51.796;13.006;2023-02-28T05:34:08;-1.10;99.90
28863;DHT22;15994;51.796;13.006;2023-02-28T05:36:37;-1.20;99.90
28863;DHT22;15994;51.796;13.006;2023-02-28T05:39:05;-1.20;99.90
28863;DHT22;15994;51.796;13.006;2023-02-28T05:41:32;-1.20;99.90
28863;DHT22;15994;51.796;13.006;2023-02-28T05:43:59;-1.20;99.90
28863;DHT22;15994;51.796;13.006;2023-02-28T05:46:26;-1.30;99.90
28863;DHT22;15994;51.796;13.006;2023-02-28T05:48:53;-1.40;99.90
28863;DHT22;15994;51.796;13.006;2023-02-28T05:51:20;-1.40;99.90
28863;DHT22;15994;51.796;13.006;2023-02-28T05:53:47;-1.40;99.90
28863;DHT22;15994;51.796;13.006;2023-02-28T05:56:14;-1.50;99.90
28863;DHT22;15994;51.796;13.006;2023-02-28T05:58:41;-1.50;99.90
28863;DHT22;15994;51.796;13.006;2023-02-28T06:01:43;-1.60;99.90
28863;DHT22;15994;51.796;13.006;2023-02-28T06:04:14;-1.60;99.90
28863;DHT22;15994;51.796;13.006;2023-02-28T06:06:43;-1.60;99.90
28863;DHT22;15994;51.796;13.006;2023-02-28T06:09:10;-1.70;99.90
28863;DHT22;15994;51.796;13.006;2023-02-28T06:11:37;-1.70;99.90
28863;DHT22;15994;51.796;13.006;2023-02-28T06:14:04;-1.70;99.90
28863;DHT22;15994;51.796;13.006;2023-02-28T06:16:32;-1.70;99.90
28863;DHT22;15994;51.796;13.006;2023-02-28T06:19:01;-1.70;99.90
28863;DHT22;15994;51.796;13.006;2023-02-28T06:21:29;-1.70;99.90
28863;DHT22;15994;51.796;13.006;2023-02-28T06:23:57;-1.70;99.90
28863;DHT22;15994;51.796;13.006;2023-02-28T06:26:25;-1.70;99.90
28863;DHT22;15994;51.796;13.006;2023-02-28T06:28:52;-1.70;99.90
28863;DHT22;15994;51.796;13.006;2023-02-28T06:31:19;-1.60;99.90
28863;DHT22;15994;51.796;13.006;2023-02-28T06:33:45;-1.60;99.90
28863;DHT22;15994;51.796;13.006;2023-02-28T06:36:13;-1.70;99.90
28863;DHT22;15994;51.796;13.006;2023-02-28T06:38:40;-1.70;99.90
28863;DHT22;15994;51.796;13.006;2023-02-28T06:41:07;-1.60;99.90
28863;DHT22;15994;51.796;13.006;2023-02-28T06:43:36;-1.60;99.90
28863;DHT22;15994;51.796;13.006;2023-02-28T06:46:06;-1.60;99.90
28863;DHT22;15994;51.796;13.006;2023-02-28T06:48:33;-1.50;99.90
28863;DHT22;15994;51.796;13.006;2023-02-28T06:51:08;-1.50;99.90
28863;DHT22;15994;51.796;13.006;2023-02-28T06:53:35;-1.50;99.90
28863;DHT22;15994;51.796;13.006;2023-02-28T06:56:10;-1.50;99.90
28863;DHT22;15994;51.796;13.006;2023-02-28T06:58:37;-1.40;99.90
28863;DHT22;15994;51.796;13.006;2023-02-28T07:01:06;-1.40;99.90
28863;DHT22;15994;51.796;13.006;2023-02-28T07:03:34;-1.30;99.90
28863;DHT22;15994;51.796;13.006;2023-02-28T07:06:01;-1.30;99.90
28863;DHT22;15994;51.796;13.006;2023-02-28T07:08:29;-1.30;99.90
28863;DHT22;15994;51.796;13.006;2023-02-28T07:10:57;-1.20;99.90
28863;DHT22;15994;51.796;13.006;2023-02-28T07:13:24;-1.20;99.90
28863;DHT22;15994;51.796;13.006;2023-02-28T07:15:58;-1.10;99.90
28863;DHT22;15994;51.796;13.006;2023-02-28T07:18:25;-1.10;99.90
28863;DHT22;15994;51.796;13.006;2023-02-28T07:20:52;-1.00;99.90
28863;DHT22;15994;51.796;13.006;2023-02-28T07:23:20;-0.80;99.90
28863;DHT22;15994;51.796;13.006;2023-02-28T07:25:47;-0.70;99.90
28863;DHT22;15994;51.796;13.006;2023-02-28T07:28:13;-0.60;99.90
28863;DHT22;15994;51.796;13.006;2023-02-28T07:30:41;-0.50;99.90
28863;DHT22;15994;51.796;13.006;2023-02-28T07:33:08;-0.40;99.90
28863;DHT22;15994;51.796;13.006;2023-02-28T07:35:34;-0.30;99.90
28863;DHT22;15994;51.796;13.006;2023-02-28T07:38:01;-0.10;99.90
28863;DHT22;15994;51.796;13.006;2023-02-28T07:40:28;0.00;99.90
28863;DHT22;15994;51.796;13.006;2023-02-28T07:42:54;0.00;99.90
28863;DHT22;15994;51.796;13.006;2023-02-28T07:45:21;0.10;99.90
28863;DHT22;15994;51.796;13.006;2023-02-28T07:47:47;0.20;99.90
28863;DHT22;15994;51.796;13.006;2023-02-28T07:50:15;0.30;99.90
28863;DHT22;15994;51.796;13.006;2023-02-28T07:52:41;0.30;99.90
28863;DHT22;15994;51.796;13.006;2023-02-28T07:55:09;0.40;99.90
28863;DHT22;15994;51.796;13.006;2023-02-28T07:57:35;0.40;99.90
28863;DHT22;15994;51.796;13.006;2023-02-28T08:00:07;0.50;99.90
28863;DHT22;15994;51.796;13.006;2023-02-28T08:02:34;0.70;99.90
28863;DHT22;15994;51.796;13.006;2023-02-28T08:05:01;0.70;99.90
28863;DHT22;15994;51.796;13.006;2023-02-28T08:07:28;0.80;99.90
28863;DHT22;15994;51.796;13.006;2023-02-28T08:09:54;0.80;99.90
28863;DHT22;15994;51.796;13.006;2023-02-28T08:12:21;0.90;99.90
28863;DHT22;15994;51.796;13.006;2023-02-28T08:14:48;1.00;99.90
28863;DHT22;15994;51.796;13.006;2023-02-28T08:17:14;1.00;99.90
28863;DHT22;15994;51.796;13.006;2023-02-28T08:19:41;1.10;99.90
28863;DHT22;15994;51.796;13.006;2023-02-28T08:22:07;1.20;99.90
28863;DHT22;15994;51.796;13.006;2023-02-28T08:24:34;1.30;99.90
28863;DHT22;15994;51.796;13.006;2023-02-28T08:27:00;1.30;99.90
28863;DHT22;15994;51.796;13.006;2023-02-28T08:29:27;1.40;99.90
28863;DHT22;15994;51.796;13.006;2023-02-28T08:31:54;1.50;99.90
28863;DHT22;15994;51.796;13.006;2023-02-28T08:34:21;1.70;99.90
28863;DHT22;15994;51.796;13.006;2023-02-28T08:36:48;1.70;99.90
28863;DHT22;15994;51.796;13.006;2023-02-28T08:39:15;1.80;99.90
28863;DHT22;15994;51.796;13.006;2023-02-28T08:41:42;1.90;99.90
28863;DHT22;15994;51.796;13.006;2023-02-28T08:44:09;1.90;99.90
28863;DHT22;15994;51.796;13.006;2023-02-28T08:46:35;2.10;99.90
28863;DHT22;15994;51.796;13.006;2023-02-28T08:49:02;2.20;99.90
28863;DHT22;15994;51.796;13.006;2023-02-28T08:51:29;2.30;99.90
28863;DHT22;15994;51.796;13.006;2023-02-28T08:53:58;2.40;99.90
28863;DHT22;15994;51.796;13.006;2023-02-28T08:56:26;2.60;99.90
28863;DHT22;15994;51.796;13.006;2023-02-28T08:58:55;2.60;99.90
28863;DHT22;15994;51.796;13.006;2023-02-28T09:01:27;2.60;99.90
28863;DHT22;15994;51.796;13.006;2023-02-28T09:03:55;2.70;99.90
28863;DHT22;15994;51.796;13.006;2023-02-28T09:06:24;2.70;99.90
28863;DHT22;15994;51.796;13.006;2023-02-28T09:08:51;2.80;99.30
28863;DHT22;15994;51.796;13.006;2023-02-28T09:11:18;2.80;99.80
28863;DHT22;15994;51.796;13.006;2023-02-28T09:13:45;2.90;99.60
28863;DHT22;15994;51.796;13.006;2023-02-28T09:16:14;2.90;99.80
28863;DHT22;15994;51.796;13.006;2023-02-28T09:18:41;2.90;99.90
28863;DHT22;15994;51.796;13.006;2023-02-28T09:21:13;3.00;99.90
28863;DHT22;15994;51.796;13.006;2023-02-28T09:23:44;3.00;99.50
28863;DHT22;15994;51.796;13.006;2023-02-28T09:26:20;3.00;98.40
28863;DHT22;15994;51.796;13.006;2023-02-28T09:28:47;3.10;98.50
28863;DHT22;15994;51.796;13.006;2023-02-28T09:31:16;3.10;98.80
28863;DHT22;15994;51.796;13.006;2023-02-28T09:33:46;3.20;98.60
28863;DHT22;15994;51.796;13.006;2023-02-28T09:36:13;3.20;98.60
28863;DHT22;15994;51.796;13.006;2023-02-28T09:38:39;3.20;97.30
28863;DHT22;15994;51.796;13.006;2023-02-28T09:41:36;3.30;98.30
28863;DHT22;15994;51.796;13.006;2023-02-28T09:44:05;3.30;96.80
28863;DHT22;15994;51.796;13.006;2023-02-28T09:46:47;3.30;97.20
28863;DHT22;15994;51.796;13.006;2023-02-28T09:49:17;3.40;97.60
28863;DHT22;15994;51.796;13.006;2023-02-28T09:52:03;3.60;98.00
28863;DHT22;15994;51.796;13.006;2023-02-28T09:54:32;3.70;97.20
28863;DHT22;15994;51.796;13.006;2023-02-28T09:57:06;3.80;97.30
28863;DHT22;15994;51.796;13.006;2023-02-28T10:05:08;4.00;97.60
28863;DHT22;15994;51.796;13.006;2023-02-28T10:10:25;3.90;97.10
28863;DHT22;15994;51.796;13.006;2023-02-28T10:12:55;3.90;95.80
28863;DHT22;15994;51.796;13.006;2023-02-28T10:15:26;3.90;97.10
28863;DHT22;15994;51.796;13.006;2023-02-28T10:17:59;4.00;96.90
28863;DHT22;15994;51.796;13.006;2023-02-28T10:20:28;4.00;97.30
28863;DHT22;15994;51.796;13.006;2023-02-28T10:25:58;4.20;96.80
28863;DHT22;15994;51.796;13.006;2023-02-28T10:28:26;4.10;95.20
28863;DHT22;15994;51.796;13.006;2023-02-28T10:30:56;4.10;95.70
28863;DHT22;15994;51.796;13.006;2023-02-28T10:33:28;4.20;97.20
28863;DHT22;15994;51.796;13.006;2023-02-28T10:35:55;4.30;96.60
28863;DHT22;15994;51.796;13.006;2023-02-28T10:38:27;4.30;96.80
28863;DHT22;15994;51.796;13.006;2023-02-28T10:41:15;4.30;96.10
28863;DHT22;15994;51.796;13.006;2023-02-28T10:43:42;4.40;96.70
28863;DHT22;15994;51.796;13.006;2023-02-28T10:48:45;4.40;96.70
28863;DHT22;15994;51.796;13.006;2023-02-28T10:51:17;4.50;96.90
28863;DHT22;15994;51.796;13.006;2023-02-28T10:53:51;4.60;96.00
28863;DHT22;15994;51.796;13.006;2023-02-28T10:56:20;4.50;95.50
28863;DHT22;15994;51.796;13.006;2023-02-28T11:01:40;4.60;95.70
28863;DHT22;15994;51.796;13.006;2023-02-28T11:07:20;4.50;95.60
28863;DHT22;15994;51.796;13.006;2023-02-28T11:09:55;4.50;95.50
28863;DHT22;15994;51.796;13.006;2023-02-28T11:12:38;4.50;94.90
28863;DHT22;15994;51.796;13.006;2023-02-28T11:15:21;4.40;96.20
28863;DHT22;15994;51.796;13.006;2023-02-28T11:20:38;4.60;96.50
28863;DHT22;15994;51.796;13.006;2023-02-28T11:23:12;4.80;96.60
28863;DHT22;15994;51.796;13.006;2023-02-28T11:25:39;4.70;95.30
28863;DHT22;15994;51.796;13.006;2023-02-28T11:28:24;4.80;95.40
28863;DHT22;15994;51.796;13.006;2023-02-28T11:33:54;4.60;95.60
28863;DHT22;15994;51.796;13.006;2023-02-28T11:36:30;4.80;96.10
28863;DHT22;15994;51.796;13.006;2023-02-28T11:39:03;4.70;95.20
28863;DHT22;15994;51.796;13.006;2023-02-28T11:42:23;4.70;95.80
28863;DHT22;15994;51.796;13.006;2023-02-28T11:47:34;4.80;95.60
28863;DHT22;15994;51.796;13.006;2023-02-28T11:53:05;4.80;95.70
28863;DHT22;15994;51.796;13.006;2023-02-28T11:55:39;5.10;97.00
28863;DHT22;15994;51.796;13.006;2023-02-28T12:02:03;5.10;95.70
28863;DHT22;15994;51.796;13.006;2023-02-28T12:04:17;5.00;96.40
28863;DHT22;15994;51.796;13.006;2023-02-28T12:06:52;5.00;95.80
28863;DHT22;15994;51.796;13.006;2023-02-28T12:09:39;5.00;95.90
28863;DHT22;15994;51.796;13.006;2023-02-28T12:15:05;4.90;96.30
28863;DHT22;15994;51.796;13.006;2023-02-28T12:21:13;5.20;96.30
28863;DHT22;15994;51.796;13.006;2023-02-28T12:26:19;5.00;96.00
28863;DHT22;15994;51.796;13.006;2023-02-28T12:32:11;4.90;95.30
28863;DHT22;15994;51.796;13.006;2023-02-28T12:34:49;5.00;96.00
28863;DHT22;15994;51.796;13.006;2023-02-28T12:37:54;5.10;96.00
28863;DHT22;15994;51.796;13.006;2023-02-28T12:42:44;5.20;96.00
28863;DHT22;15994;51.796;13.006;2023-02-28T12:45:24;5.30;95.90
28863;DHT22;15994;51.796;13.006;2023-02-28T12:47:59;5.20;95.30
28863;DHT22;15994;51.796;13.006;2023-02-28T12:50:28;5.30;95.60
28863;DHT22;15994;51.796;13.006;2023-02-28T12:53:06;5.30;95.20
28863;DHT22;15994;51.796;13.006;2023-02-28T12:58:10;5.30;96.20
28863;DHT22;15994;51.796;13.006;2023-02-28T13:00:58;5.30;94.70
28863;DHT22;15994;51.796;13.006;2023-02-28T13:09:19;5.50;95.70
28863;DHT22;15994;51.796;13.006;2023-02-28T13:11:51;5.40;94.60
28863;DHT22;15994;51.796;13.006;2023-02-28T13:14:36;5.40;95.40
28863;DHT22;15994;51.796;13.006;2023-02-28T13:17:11;5.40;95.80
28863;DHT22;15994;51.796;13.006;2023-02-28T13:19:42;5.40;95.90
28863;DHT22;15994;51.796;13.006;2023-02-28T13:22:41;5.40;95.00
28863;DHT22;15994;51.796;13.006;2023-02-28T13:25:49;5.20;94.40
28863;DHT22;15994;51.796;13.006;2023-02-28T13:31:19;5.30;95.50
28863;DHT22;15994;51.796;13.006;2023-02-28T13:38:52;5.50;95.70
28863;DHT22;15994;51.796;13.006;2023-02-28T13:47:15;5.40;95.10
28863;DHT22;15994;51.796;13.006;2023-02-28T14:00:28;5.50;95.50
28863;DHT22;15994;51.796;13.006;2023-02-28T14:03:18;5.50;96.40
28863;DHT22;15994;51.796;13.006;2023-02-28T14:06:23;5.60;96.30
28863;DHT22;15994;51.796;13.006;2023-02-28T14:08:58;5.70;96.50
28863;DHT22;15994;51.796;13.006;2023-02-28T14:11:37;5.70;96.20
28863;DHT22;15994;51.796;13.006;2023-02-28T14:14:06;5.70;96.00
28863;DHT22;15994;51.796;13.006;2023-02-28T14:16:43;5.60;95.20
28863;DHT22;15994;51.796;13.006;2023-02-28T14:19:24;5.50;95.50
28863;DHT22;15994;51.796;13.006;2023-02-28T14:27:40;5.40;95.10
28863;DHT22;15994;51.796;13.006;2023-02-28T14:30:15;5.40;95.40
28863;DHT22;15994;51.796;13.006;2023-02-28T14:38:31;5.30;95.50
28863;DHT22;15994;51.796;13.006;2023-02-28T14:41:00;5.30;95.70
28863;DHT22;15994;51.796;13.006;2023-02-28T14:43:28;5.30;95.50
28863;DHT22;15994;51.796;13.006;2023-02-28T14:46:05;5.30;95.30
28863;DHT22;15994;51.796;13.006;2023-02-28T14:48:32;5.30;95.80
28863;DHT22;15994;51.796;13.006;2023-02-28T14:51:01;5.40;95.60
28863;DHT22;15994;51.796;13.006;2023-02-28T14:53:30;5.30;95.30
28863;DHT22;15994;51.796;13.006;2023-02-28T14:55:57;5.20;95.60
28863;DHT22;15994;51.796;13.006;2023-02-28T14:58:33;5.30;96.10
28863;DHT22;15994;51.796;13.006;2023-02-28T15:01:02;5.30;96.00
28863;DHT22;15994;51.796;13.006;2023-02-28T15:05:58;5.30;95.70
28863;DHT22;15994;51.796;13.006;2023-02-28T15:08:26;5.20;95.60
28863;DHT22;15994;51.796;13.006;2023-02-28T15:11:11;5.20;95.30
28863;DHT22;15994;51.796;13.006;2023-02-28T15:13:40;5.20;96.00
28863;DHT22;15994;51.796;13.006;2023-02-28T15:19:34;5.20;96.30
28863;DHT22;15994;51.796;13.006;2023-02-28T15:21:40;5.20;96.40
28863;DHT22;15994;51.796;13.006;2023-02-28T15:24:19;5.10;96.50
28863;DHT22;15994;51.796;13.006;2023-02-28T15:26:57;5.10;96.20
28863;DHT22;15994;51.796;13.006;2023-02-28T15:29:26;5.10;96.30
28863;DHT22;15994;51.796;13.006;2023-02-28T15:36:59;5.10;96.70
28863;DHT22;15994;51.796;13.006;2023-02-28T15:39:28;5.00;96.60
28863;DHT22;15994;51.796;13.006;2023-02-28T15:42:12;5.00;96.60
28863;DHT22;15994;51.796;13.006;2023-02-28T15:44:38;5.00;96.80
28863;DHT22;15994;51.796;13.006;2023-02-28T15:47:14;4.90;96.50
28863;DHT22;15994;51.796;13.006;2023-02-28T15:49:47;4.90;96.80
28863;DHT22;15994;51.796;13.006;2023-02-28T15:52:18;4.80;96.70
28863;DHT22;15994;51.796;13.006;2023-02-28T15:54:46;4.80;96.90
28863;DHT22;15994;51.796;13.006;2023-02-28T15:57:22;4.80;97.20
28863;DHT22;15994;51.796;13.006;2023-02-28T15:59:56;4.70;97.20
28863;DHT22;15994;51.796;13.006;2023-02-28T16:02:34;4.70;97.60
28863;DHT22;15994;51.796;13.006;2023-02-28T16:07:38;4.60;97.60
28863;DHT22;15994;51.796;13.006;2023-02-28T16:10:07;4.60;97.90
28863;DHT22;15994;51.796;13.006;2023-02-28T16:12:36;4.50;98.00
28863;DHT22;15994;51.796;13.006;2023-02-28T16:15:19;4.40;97.90
28863;DHT22;15994;51.796;13.006;2023-02-28T16:17:47;4.40;98.00
28863;DHT22;15994;51.796;13.006;2023-02-28T16:20:18;4.30;98.00
28863;DHT22;15994;51.796;13.006;2023-02-28T16:22:45;4.30;98.30
28863;DHT22;15994;51.796;13.006;2023-02-28T16:25:17;4.20;98.40
28863;DHT22;15994;51.796;13.006;2023-02-28T16:27:46;4.20;98.30
28863;DHT22;15994;51.796;13.006;2023-02-28T16:30:26;4.20;98.60
28863;DHT22;15994;51.796;13.006;2023-02-28T16:32:55;4.10;98.60
28863;DHT22;15994;51.796;13.006;2023-02-28T16:35:22;4.00;98.70
28863;DHT22;15994;51.796;13.006;2023-02-28T16:37:52;3.90;98.80
28863;DHT22;15994;51.796;13.006;2023-02-28T16:40:24;3.80;99.10
28863;DHT22;15994;51.796;13.006;2023-02-28T16:42:53;3.70;99.10
28863;DHT22;15994;51.796;13.006;2023-02-28T16:45:27;3.60;99.30
28863;DHT22;15994;51.796;13.006;2023-02-28T16:47:54;3.50;99.70
28863;DHT22;15994;51.796;13.006;2023-02-28T16:50:24;3.50;99.90
28863;DHT22;15994;51.796;13.006;2023-02-28T16:52:51;3.30;99.90
28863;DHT22;15994;51.796;13.006;2023-02-28T16:55:20;3.30;99.90
28863;DHT22;15994;51.796;13.006;2023-02-28T16:57:51;3.10;99.90
28863;DHT22;15994;51.796;13.006;2023-02-28T17:00:18;3.00;99.90
28863;DHT22;15994;51.796;13.006;2023-02-28T17:02:45;2.90;99.90
28863;DHT22;15994;51.796;13.006;2023-02-28T17:05:12;2.80;99.90
28863;DHT22;15994;51.796;13.006;2023-02-28T17:07:40;2.70;99.90
28863;DHT22;15994;51.796;13.006;2023-02-28T17:10:16;2.70;99.90
28863;DHT22;15994;51.796;13.006;2023-02-28T17:12:43;2.50;99.90
28863;DHT22;15994;51.796;13.006;2023-02-28T17:15:11;2.50;99.90
28863;DHT22;15994;51.796;13.006;2023-02-28T17:17:38;2.40;99.90
28863;DHT22;15994;51.796;13.006;2023-02-28T17:20:06;2.30;99.90
28863;DHT22;15994;51.796;13.006;2023-02-28T17:22:32;2.30;99.90
28863;DHT22;15994;51.796;13.006;2023-02-28T17:24:59;2.30;99.90
28863;DHT22;15994;51.796;13.006;2023-02-28T17:27:25;2.20;99.90
28863;DHT22;15994;51.796;13.006;2023-02-28T17:29:52;2.10;99.90
28863;DHT22;15994;51.796;13.006;2023-02-28T17:32:19;2.10;99.90
28863;DHT22;15994;51.796;13.006;2023-02-28T17:34:45;2.00;99.90
28863;DHT22;15994;51.796;13.006;2023-02-28T17:37:12;2.00;99.90
28863;DHT22;15994;51.796;13.006;2023-02-28T17:39:38;2.00;99.90
28863;DHT22;15994;51.796;13.006;2023-02-28T17:42:05;2.00;99.90
28863;DHT22;15994;51.796;13.006;2023-02-28T17:44:33;1.90;99.90
28863;DHT22;15994;51.796;13.006;2023-02-28T17:46:59;1.90;99.90
28863;DHT22;15994;51.796;13.006;2023-02-28T17:49:26;1.80;99.90
28863;DHT22;15994;51.796;13.006;2023-02-28T17:51:53;1.80;99.90
28863;DHT22;15994;51.796;13.006;2023-02-28T17:54:19;1.70;99.90
28863;DHT22;15994;51.796;13.006;2023-02-28T17:56:46;1.70;99.90
28863;DHT22;15994;51.796;13.006;2023-02-28T17:59:13;1.70;99.90
28863;DHT22;15994;51.796;13.006;2023-02-28T18:01:40;1.60;99.90
28863;DHT22;15994;51.796;13.006;2023-02-28T18:04:07;1.60;99.90
28863;DHT22;15994;51.796;13.006;2023-02-28T18:06:43;1.50;99.90
28863;DHT22;15994;51.796;13.006;2023-02-28T18:09:18;1.50;99.90